sensor_id;sensor_type;location;lat;lon;timestamp;temperature;humidity
81307;DHT22;70775;50.846;3.224;2023-07-29T00:01:30;18.10;89.90
81307;DHT22;70775;50.846;3.224;2023-07-29T00:03:56;18.10;89.50
81307;DHT22;70775;50.846;3.224;2023-07-29T00:06:21;18.00;89.90
81307;DHT22;70775;50.846;3.224;2023-07-29T00:08:47;18.00;90.20
81307;DHT22;70775;50.846;3.224;2023-07-29T00:11:12;18.00;90.20
81307;DHT22;70775;50.846;3.224;2023-07-29T00:13:48;18.00;90.10
81307;DHT22;70775;50.846;3.224;2023-07-29T00:16:15;18.00;89.90
81307;DHT22;70775;50.846;3.224;2023-07-29T00:18:43;18.00;90.10
81307;DHT22;70775;50.846;3.224;2023-07-29T00:21:39;18.00;90.00
81307;DHT22;70775;50.846;3.224;2023-07-29T00:24:06;18.00;90.00
81307;DHT22;70775;50.846;3.224;2023-07-29T00:26:32;18.10;89.70
81307;DHT22;70775;50.846;3.224;2023-07-29T00:28:58;18.20;89.20
81307;DHT22;70775;50.846;3.224;2023-07-29T00:31:24;18.30;88.70
81307;DHT22;70775;50.846;3.224;2023-07-29T00:34:08;18.40;88.50
81307;DHT22;70775;50.846;3.224;2023-07-29T00:36:34;18.40;88.60
81307;DHT22;70775;50.846;3.224;2023-07-29T00:39:00;18.30;88.70
81307;DHT22;70775;50.846;3.224;2023-07-29T00:41:26;18.40;88.50
81307;DHT22;70775;50.846;3.224;2023-07-29T00:43:51;18.40;88.40
81307;DHT22;70775;50.846;3.224;2023-07-29T00:46:28;18.50;87.80
81307;DHT22;70775;50.846;3.224;2023-07-29T00:48:54;18.40;88.40
81307;DHT22;70775;50.846;3.224;2023-07-29T00:51:25;18.20;88.90
81307;DHT22;70775;50.846;3.224;2023-07-29T00:53:57;18.20;89.20
81307;DHT22;70775;50.846;3.224;2023-07-29T00:56:23;18.20;89.30
81307;DHT22;70775;50.846;3.224;2023-07-29T00:58:49;18.20;89.20
81307;DHT22;70775;50.846;3.224;2023-07-29T01:01:17;18.10;89.40
81307;DHT22;70775;50.846;3.224;2023-07-29T01:03:43;18.00;90.00
81307;DHT22;70775;50.846;3.224;2023-07-29T01:06:32;17.90;90.20
81307;DHT22;70775;50.846;3.224;2023-07-29T01:11:47;17.90;90.30
81307;DHT22;70775;50.846;3.224;2023-07-29T01:16:47;17.80;90.50
81307;DHT22;70775;50.846;3.224;2023-07-29T01:20:27;17.70;91.20
81307;DHT22;70775;50.846;3.224;2023-07-29T01:22:39;17.70;90.80
81307;DHT22;70775;50.846;3.224;2023-07-29T01:25:17;17.60;91.00
81307;DHT22;70775;50.846;3.224;2023-07-29T01:27:45;17.60;90.90
81307;DHT22;70775;50.846;3.224;2023-07-29T01:33:20;17.60;90.90
81307;DHT22;70775;50.846;3.224;2023-07-29T01:35:50;17.60;90.90
81307;DHT22;70775;50.846;3.224;2023-07-29T01:38:19;17.60;90.80
81307;DHT22;70775;50.846;3.224;2023-07-29T01:40:48;17.60;90.80
81307;DHT22;70775;50.846;3.224;2023-07-29T01:43:19;17.60;90.80
81307;DHT22;70775;50.846;3.224;2023-07-29T01:45:49;17.60;90.60
81307;DHT22;70775;50.846;3.224;2023-07-29T01:48:15;17.70;90.60
81307;DHT22;70775;50.846;3.224;2023-07-29T01:50:40;17.60;90.60
81307;DHT22;70775;50.846;3.224;2023-07-29T01:53:06;17.60;90.60
81307;DHT22;70775;50.846;3.224;2023-07-29T01:55:31;17.60;90.60
81307;DHT22;70775;50.846;3.224;2023-07-29T01:57:57;17.60;90.60
81307;DHT22;70775;50.846;3.224;2023-07-29T02:00:59;17.60;91.20
81307;DHT22;70775;50.846;3.224;2023-07-29T02:03:26;17.70;90.30
81307;DHT22;70775;50.846;3.224;2023-07-29T02:05:52;17.60;90.40
81307;DHT22;70775;50.846;3.224;2023-07-29T02:08:17;17.70;90.30
81307;DHT22;70775;50.846;3.224;2023-07-29T02:10:43;17.70;90.30
81307;DHT22;70775;50.846;3.224;2023-07-29T02:13:15;17.80;90.20
81307;DHT22;70775;50.846;3.224;2023-07-29T02:15:47;17.90;90.10
81307;DHT22;70775;50.846;3.224;2023-07-29T02:18:42;17.90;89.40
81307;DHT22;70775;50.846;3.224;2023-07-29T02:21:07;17.90;89.40
81307;DHT22;70775;50.846;3.224;2023-07-29T02:23:33;17.80;89.90
81307;DHT22;70775;50.846;3.224;2023-07-29T02:26:01;17.70;90.20
81307;DHT22;70775;50.846;3.224;2023-07-29T02:28:43;17.70;90.20
81307;DHT22;70775;50.846;3.224;2023-07-29T02:31:22;17.50;90.50
81307;DHT22;70775;50.846;3.224;2023-07-29T02:33:57;17.40;90.80
81307;DHT22;70775;50.846;3.224;2023-07-29T02:36:23;17.50;90.60
81307;DHT22;70775;50.846;3.224;2023-07-29T02:39:04;17.50;90.40
81307;DHT22;70775;50.846;3.224;2023-07-29T02:41:30;17.50;90.50
81307;DHT22;70775;50.846;3.224;2023-07-29T02:46:49;17.30;90.90
81307;DHT22;70775;50.846;3.224;2023-07-29T02:49:16;17.30;90.90
81307;DHT22;70775;50.846;3.224;2023-07-29T02:55:07;17.30;91.00
81307;DHT22;70775;50.846;3.224;2023-07-29T02:57:33;17.20;91.10
81307;DHT22;70775;50.846;3.224;2023-07-29T03:00:13;17.30;90.90
81307;DHT22;70775;50.846;3.224;2023-07-29T03:02:40;17.30;90.90
81307;DHT22;70775;50.846;3.224;2023-07-29T03:05:06;17.40;90.80
81307;DHT22;70775;50.846;3.224;2023-07-29T03:07:31;17.40;90.80
81307;DHT22;70775;50.846;3.224;2023-07-29T03:09:57;17.40;90.70
81307;DHT22;70775;50.846;3.224;2023-07-29T03:12:35;17.50;90.70
81307;DHT22;70775;50.846;3.224;2023-07-29T03:15:00;17.50;90.40
81307;DHT22;70775;50.846;3.224;2023-07-29T03:17:27;17.40;90.50
81307;DHT22;70775;50.846;3.224;2023-07-29T03:19:52;17.50;90.50
81307;DHT22;70775;50.846;3.224;2023-07-29T03:22:44;17.40;91.00
81307;DHT22;70775;50.846;3.224;2023-07-29T03:25:16;17.40;90.70
81307;DHT22;70775;50.846;3.224;2023-07-29T03:27:47;17.40;90.70
81307;DHT22;70775;50.846;3.224;2023-07-29T03:30:33;17.40;90.50
81307;DHT22;70775;50.846;3.224;2023-07-29T03:32:59;17.50;90.50
81307;DHT22;70775;50.846;3.224;2023-07-29T03:35:28;17.50;90.60
81307;DHT22;70775;50.846;3.224;2023-07-29T03:37:54;17.50;90.40
81307;DHT22;70775;50.846;3.224;2023-07-29T03:40:19;17.60;90.20
81307;DHT22;70775;50.846;3.224;2023-07-29T03:42:45;17.50;90.30
81307;DHT22;70775;50.846;3.224;2023-07-29T03:45:10;17.40;90.40
81307;DHT22;70775;50.846;3.224;2023-07-29T03:47:46;17.40;90.50
81307;DHT22;70775;50.846;3.224;2023-07-29T03:50:12;17.40;90.60
81307;DHT22;70775;50.846;3.224;2023-07-29T03:52:39;17.40;90.50
81307;DHT22;70775;50.846;3.224;2023-07-29T03:55:19;17.40;90.40
81307;DHT22;70775;50.846;3.224;2023-07-29T03:57:45;17.40;90.50
81307;DHT22;70775;50.846;3.224;2023-07-29T04:00:10;17.40;90.20
81307;DHT22;70775;50.846;3.224;2023-07-29T04:02:43;17.60;90.10
81307;DHT22;70775;50.846;3.224;2023-07-29T04:05:11;17.60;90.00
81307;DHT22;70775;50.846;3.224;2023-07-29T04:07:36;17.70;89.60
81307;DHT22;70775;50.846;3.224;2023-07-29T04:10:04;17.70;89.60
81307;DHT22;70775;50.846;3.224;2023-07-29T04:12:30;17.60;89.70
81307;DHT22;70775;50.846;3.224;2023-07-29T04:15:25;17.60;90.00
81307;DHT22;70775;50.846;3.224;2023-07-29T04:17:50;17.60;90.00
81307;DHT22;70775;50.846;3.224;2023-07-29T04:20:16;17.50;90.00
81307;DHT22;70775;50.846;3.224;2023-07-29T04:22:42;17.40;90.10
81307;DHT22;70775;50.846;3.224;2023-07-29T04:25:07;17.40;90.20
81307;DHT22;70775;50.846;3.224;2023-07-29T04:27:34;17.40;90.30
81307;DHT22;70775;50.846;3.224;2023-07-29T04:30:29;17.40;90.30
81307;DHT22;70775;50.846;3.224;2023-07-29T04:33:09;17.50;90.20
81307;DHT22;70775;50.846;3.224;2023-07-29T04:35:35;17.50;90.00
81307;DHT22;70775;50.846;3.224;2023-07-29T04:38:00;17.50;89.80
81307;DHT22;70775;50.846;3.224;2023-07-29T04:40:26;17.50;90.10
81307;DHT22;70775;50.846;3.224;2023-07-29T04:42:52;17.40;90.00
81307;DHT22;70775;50.846;3.224;2023-07-29T04:45:43;17.30;90.30
81307;DHT22;70775;50.846;3.224;2023-07-29T04:48:28;17.30;90.30
81307;DHT22;70775;50.846;3.224;2023-07-29T04:51:05;17.30;90.40
81307;DHT22;70775;50.846;3.224;2023-07-29T04:53:31;17.30;90.40
81307;DHT22;70775;50.846;3.224;2023-07-29T04:55:56;17.40;90.20
81307;DHT22;70775;50.846;3.224;2023-07-29T04:58:22;17.40;90.00
81307;DHT22;70775;50.846;3.224;2023-07-29T05:04:28;17.50;90.00
81307;DHT22;70775;50.846;3.224;2023-07-29T05:06:56;17.50;89.60
81307;DHT22;70775;50.846;3.224;2023-07-29T05:09:24;17.60;89.90
81307;DHT22;70775;50.846;3.224;2023-07-29T05:11:49;17.60;89.30
81307;DHT22;70775;50.846;3.224;2023-07-29T05:14:16;17.60;89.00
81307;DHT22;70775;50.846;3.224;2023-07-29T05:16:42;17.60;89.20
81307;DHT22;70775;50.846;3.224;2023-07-29T05:19:08;17.70;88.30
81307;DHT22;70775;50.846;3.224;2023-07-29T05:21:34;17.70;88.40
81307;DHT22;70775;50.846;3.224;2023-07-29T05:24:00;17.80;88.20
81307;DHT22;70775;50.846;3.224;2023-07-29T05:26:26;17.80;87.60
81307;DHT22;70775;50.846;3.224;2023-07-29T05:28:51;17.90;87.80
81307;DHT22;70775;50.846;3.224;2023-07-29T05:31:17;17.90;87.30
81307;DHT22;70775;50.846;3.224;2023-07-29T05:33:43;17.90;87.30
81307;DHT22;70775;50.846;3.224;2023-07-29T05:36:09;17.90;87.70
81307;DHT22;70775;50.846;3.224;2023-07-29T05:38:37;17.90;87.70
81307;DHT22;70775;50.846;3.224;2023-07-29T05:41:03;18.00;87.40
81307;DHT22;70775;50.846;3.224;2023-07-29T05:43:43;18.00;87.40
81307;DHT22;70775;50.846;3.224;2023-07-29T05:46:09;18.10;87.50
81307;DHT22;70775;50.846;3.224;2023-07-29T05:48:36;18.10;86.70
81307;DHT22;70775;50.846;3.224;2023-07-29T05:51:02;18.20;86.40
81307;DHT22;70775;50.846;3.224;2023-07-29T05:53:28;18.20;86.40
81307;DHT22;70775;50.846;3.224;2023-07-29T05:55:53;18.20;86.40
81307;DHT22;70775;50.846;3.224;2023-07-29T05:58:19;18.30;86.30
81307;DHT22;70775;50.846;3.224;2023-07-29T06:00:44;18.30;85.70
81307;DHT22;70775;50.846;3.224;2023-07-29T06:03:16;18.40;86.20
81307;DHT22;70775;50.846;3.224;2023-07-29T06:05:42;18.40;84.90
81307;DHT22;70775;50.846;3.224;2023-07-29T06:08:12;18.30;85.20
81307;DHT22;70775;50.846;3.224;2023-07-29T06:10:38;18.30;86.10
81307;DHT22;70775;50.846;3.224;2023-07-29T06:13:04;18.30;85.30
81307;DHT22;70775;50.846;3.224;2023-07-29T06:18:40;18.30;85.40
81307;DHT22;70775;50.846;3.224;2023-07-29T06:21:05;18.30;85.50
81307;DHT22;70775;50.846;3.224;2023-07-29T06:23:33;18.40;85.70
81307;DHT22;70775;50.846;3.224;2023-07-29T06:26:17;18.40;85.70
81307;DHT22;70775;50.846;3.224;2023-07-29T06:28:46;18.50;85.70
81307;DHT22;70775;50.846;3.224;2023-07-29T06:31:12;18.40;85.70
81307;DHT22;70775;50.846;3.224;2023-07-29T06:33:37;18.40;85.80
81307;DHT22;70775;50.846;3.224;2023-07-29T06:36:03;18.40;86.20
81307;DHT22;70775;50.846;3.224;2023-07-29T06:38:29;18.40;86.30
81307;DHT22;70775;50.846;3.224;2023-07-29T06:40:54;18.40;86.90
81307;DHT22;70775;50.846;3.224;2023-07-29T06:43:20;18.40;86.70
81307;DHT22;70775;50.846;3.224;2023-07-29T06:49:10;18.60;86.00
81307;DHT22;70775;50.846;3.224;2023-07-29T06:51:36;18.70;86.60
81307;DHT22;70775;50.846;3.224;2023-07-29T06:54:02;18.80;86.20
81307;DHT22;70775;50.846;3.224;2023-07-29T06:56:28;18.80;86.50
81307;DHT22;70775;50.846;3.224;2023-07-29T06:58:54;18.90;85.50
81307;DHT22;70775;50.846;3.224;2023-07-29T07:01:19;19.00;86.80
81307;DHT22;70775;50.846;3.224;2023-07-29T07:03:45;19.10;86.70
81307;DHT22;70775;50.846;3.224;2023-07-29T07:06:10;19.20;86.00
81307;DHT22;70775;50.846;3.224;2023-07-29T07:08:36;19.30;85.90
81307;DHT22;70775;50.846;3.224;2023-07-29T07:11:02;19.40;85.00
81307;DHT22;70775;50.846;3.224;2023-07-29T07:13:27;19.40;84.80
81307;DHT22;70775;50.846;3.224;2023-07-29T07:15:56;19.30;85.50
81307;DHT22;70775;50.846;3.224;2023-07-29T07:18:41;19.40;85.20
81307;DHT22;70775;50.846;3.224;2023-07-29T07:21:06;19.60;85.80
81307;DHT22;70775;50.846;3.224;2023-07-29T07:23:32;19.60;84.60
81307;DHT22;70775;50.846;3.224;2023-07-29T07:25:58;19.60;85.50
81307;DHT22;70775;50.846;3.224;2023-07-29T07:28:31;19.60;86.10
81307;DHT22;70775;50.846;3.224;2023-07-29T07:31:20;19.70;84.80
81307;DHT22;70775;50.846;3.224;2023-07-29T07:33:45;19.80;85.00
81307;DHT22;70775;50.846;3.224;2023-07-29T07:36:24;19.90;83.70
81307;DHT22;70775;50.846;3.224;2023-07-29T07:38:49;20.00;84.00
81307;DHT22;70775;50.846;3.224;2023-07-29T07:41:35;20.00;83.80
81307;DHT22;70775;50.846;3.224;2023-07-29T07:44:01;20.00;83.70
81307;DHT22;70775;50.846;3.224;2023-07-29T07:46:26;20.00;83.20
81307;DHT22;70775;50.846;3.224;2023-07-29T07:48:56;19.90;84.00
81307;DHT22;70775;50.846;3.224;2023-07-29T07:54:44;20.20;82.40
81307;DHT22;70775;50.846;3.224;2023-07-29T07:57:10;20.30;82.30
81307;DHT22;70775;50.846;3.224;2023-07-29T07:59:36;20.30;81.10
81307;DHT22;70775;50.846;3.224;2023-07-29T08:02:01;20.40;82.50
81307;DHT22;70775;50.846;3.224;2023-07-29T08:04:27;20.60;81.40
81307;DHT22;70775;50.846;3.224;2023-07-29T08:06:58;20.90;82.20
81307;DHT22;70775;50.846;3.224;2023-07-29T08:12:46;20.90;79.60
81307;DHT22;70775;50.846;3.224;2023-07-29T08:15:12;21.00;79.50
81307;DHT22;70775;50.846;3.224;2023-07-29T08:17:38;20.90;79.10
81307;DHT22;70775;50.846;3.224;2023-07-29T08:20:39;20.80;80.30
81307;DHT22;70775;50.846;3.224;2023-07-29T08:23:05;20.80;80.30
81307;DHT22;70775;50.846;3.224;2023-07-29T08:25:52;20.70;80.80
81307;DHT22;70775;50.846;3.224;2023-07-29T08:28:33;20.60;80.10
81307;DHT22;70775;50.846;3.224;2023-07-29T08:30:59;20.60;80.00
81307;DHT22;70775;50.846;3.224;2023-07-29T08:33:37;20.40;80.10
81307;DHT22;70775;50.846;3.224;2023-07-29T08:36:03;20.40;80.40
81307;DHT22;70775;50.846;3.224;2023-07-29T08:38:53;20.40;80.80
81307;DHT22;70775;50.846;3.224;2023-07-29T08:41:59;20.40;81.30
81307;DHT22;70775;50.846;3.224;2023-07-29T08:44:29;20.30;82.40
81307;DHT22;70775;50.846;3.224;2023-07-29T08:46:56;20.30;83.70
81307;DHT22;70775;50.846;3.224;2023-07-29T08:49:23;20.30;84.10
81307;DHT22;70775;50.846;3.224;2023-07-29T08:51:50;20.40;83.30
81307;DHT22;70775;50.846;3.224;2023-07-29T08:54:19;20.50;83.00
81307;DHT22;70775;50.846;3.224;2023-07-29T08:56:45;20.60;81.00
81307;DHT22;70775;50.846;3.224;2023-07-29T08:59:12;20.70;80.80
81307;DHT22;70775;50.846;3.224;2023-07-29T09:01:41;20.60;80.40
81307;DHT22;70775;50.846;3.224;2023-07-29T09:04:07;20.60;80.50
81307;DHT22;70775;50.846;3.224;2023-07-29T09:06:55;20.60;79.60
81307;DHT22;70775;50.846;3.224;2023-07-29T09:09:35;20.60;80.70
81307;DHT22;70775;50.846;3.224;2023-07-29T09:15:07;20.50;81.80
81307;DHT22;70775;50.846;3.224;2023-07-29T09:17:43;20.50;82.30
81307;DHT22;70775;50.846;3.224;2023-07-29T09:20:10;20.50;82.70
81307;DHT22;70775;50.846;3.224;2023-07-29T09:22:50;20.50;83.20
81307;DHT22;70775;50.846;3.224;2023-07-29T09:28:39;20.00;85.10
81307;DHT22;70775;50.846;3.224;2023-07-29T09:31:05;19.80;85.60
81307;DHT22;70775;50.846;3.224;2023-07-29T09:33:35;19.70;86.80
81307;DHT22;70775;50.846;3.224;2023-07-29T09:36:15;19.70;87.60
81307;DHT22;70775;50.846;3.224;2023-07-29T09:38:47;19.70;89.10
81307;DHT22;70775;50.846;3.224;2023-07-29T09:41:15;19.90;88.50
81307;DHT22;70775;50.846;3.224;2023-07-29T09:43:41;20.00;89.40
81307;DHT22;70775;50.846;3.224;2023-07-29T09:46:07;20.10;87.30
81307;DHT22;70775;50.846;3.224;2023-07-29T09:48:36;19.90;87.20
81307;DHT22;70775;50.846;3.224;2023-07-29T09:53:55;19.70;89.50
81307;DHT22;70775;50.846;3.224;2023-07-29T09:56:25;19.60;90.00
81307;DHT22;70775;50.846;3.224;2023-07-29T09:58:51;19.60;90.70
81307;DHT22;70775;50.846;3.224;2023-07-29T10:01:18;19.50;90.30
81307;DHT22;70775;50.846;3.224;2023-07-29T10:03:44;19.50;90.70
81307;DHT22;70775;50.846;3.224;2023-07-29T10:06:11;19.50;90.60
81307;DHT22;70775;50.846;3.224;2023-07-29T10:08:37;19.50;90.70
81307;DHT22;70775;50.846;3.224;2023-07-29T10:11:09;19.60;90.00
81307;DHT22;70775;50.846;3.224;2023-07-29T10:13:35;19.60;90.00
81307;DHT22;70775;50.846;3.224;2023-07-29T10:16:02;19.60;90.60
81307;DHT22;70775;50.846;3.224;2023-07-29T10:18:28;18.90;91.50
81307;DHT22;70775;50.846;3.224;2023-07-29T10:20:57;18.20;92.30
81307;DHT22;70775;50.846;3.224;2023-07-29T10:23:25;17.90;93.00
81307;DHT22;70775;50.846;3.224;2023-07-29T10:26:01;17.70;93.40
81307;DHT22;70775;50.846;3.224;2023-07-29T10:28:30;17.80;93.30
81307;DHT22;70775;50.846;3.224;2023-07-29T10:30:57;17.90;94.10
81307;DHT22;70775;50.846;3.224;2023-07-29T10:33:31;18.10;93.60
81307;DHT22;70775;50.846;3.224;2023-07-29T10:35:58;18.20;93.60
81307;DHT22;70775;50.846;3.224;2023-07-29T10:38:24;18.40;93.70
81307;DHT22;70775;50.846;3.224;2023-07-29T10:41:00;18.50;94.10
81307;DHT22;70775;50.846;3.224;2023-07-29T10:45:56;19.20;93.50
81307;DHT22;70775;50.846;3.224;2023-07-29T10:51:22;19.70;93.20
81307;DHT22;70775;50.846;3.224;2023-07-29T10:57:30;20.20;93.00
81307;DHT22;70775;50.846;3.224;2023-07-29T10:59:56;20.40;92.50
81307;DHT22;70775;50.846;3.224;2023-07-29T11:02:32;20.50;90.70
81307;DHT22;70775;50.846;3.224;2023-07-29T11:04:58;20.80;90.30
81307;DHT22;70775;50.846;3.224;2023-07-29T11:07:25;20.80;90.90
81307;DHT22;70775;50.846;3.224;2023-07-29T11:09:54;20.90;88.30
81307;DHT22;70775;50.846;3.224;2023-07-29T11:12:47;20.80;88.00
81307;DHT22;70775;50.846;3.224;2023-07-29T11:15:25;20.70;88.10
81307;DHT22;70775;50.846;3.224;2023-07-29T11:18:10;20.50;90.60
81307;DHT22;70775;50.846;3.224;2023-07-29T11:23:46;20.70;91.10
81307;DHT22;70775;50.846;3.224;2023-07-29T11:26:11;21.10;90.20
81307;DHT22;70775;50.846;3.224;2023-07-29T11:28:55;21.40;86.70
81307;DHT22;70775;50.846;3.224;2023-07-29T11:31:38;21.70;89.00
81307;DHT22;70775;50.846;3.224;2023-07-29T11:34:06;22.10;86.90
81307;DHT22;70775;50.846;3.224;2023-07-29T11:36:32;22.60;85.20
81307;DHT22;70775;50.846;3.224;2023-07-29T11:38:58;22.70;83.00
81307;DHT22;70775;50.846;3.224;2023-07-29T11:41:23;22.30;79.50
81307;DHT22;70775;50.846;3.224;2023-07-29T11:43:50;22.00;78.40
81307;DHT22;70775;50.846;3.224;2023-07-29T11:46:15;21.80;79.10
81307;DHT22;70775;50.846;3.224;2023-07-29T11:48:44;21.70;79.30
81307;DHT22;70775;50.846;3.224;2023-07-29T11:51:10;21.70;80.80
81307;DHT22;70775;50.846;3.224;2023-07-29T11:53:37;21.80;81.90
81307;DHT22;70775;50.846;3.224;2023-07-29T11:56:27;22.00;81.00
81307;DHT22;70775;50.846;3.224;2023-07-29T11:58:59;22.00;77.80
81307;DHT22;70775;50.846;3.224;2023-07-29T12:01:25;22.00;77.10
81307;DHT22;70775;50.846;3.224;2023-07-29T12:03:51;21.90;80.10
81307;DHT22;70775;50.846;3.224;2023-07-29T12:06:17;22.10;79.20
81307;DHT22;70775;50.846;3.224;2023-07-29T12:08:43;22.20;77.70
81307;DHT22;70775;50.846;3.224;2023-07-29T12:11:09;22.10;79.20
81307;DHT22;70775;50.846;3.224;2023-07-29T12:13:38;22.30;79.00
81307;DHT22;70775;50.846;3.224;2023-07-29T12:16:04;22.30;81.70
81307;DHT22;70775;50.846;3.224;2023-07-29T12:18:32;22.20;80.00
81307;DHT22;70775;50.846;3.224;2023-07-29T12:20:58;22.30;81.80
81307;DHT22;70775;50.846;3.224;2023-07-29T12:23:25;22.40;80.20
81307;DHT22;70775;50.846;3.224;2023-07-29T12:26:00;22.60;80.60
81307;DHT22;70775;50.846;3.224;2023-07-29T12:28:26;22.70;80.20
81307;DHT22;70775;50.846;3.224;2023-07-29T12:30:56;23.00;77.50
81307;DHT22;70775;50.846;3.224;2023-07-29T12:33:36;23.20;77.60
81307;DHT22;70775;50.846;3.224;2023-07-29T12:36:03;23.40;74.60
81307;DHT22;70775;50.846;3.224;2023-07-29T12:38:29;23.30;75.50
81307;DHT22;70775;50.846;3.224;2023-07-29T12:40:55;23.30;75.10
81307;DHT22;70775;50.846;3.224;2023-07-29T12:43:21;23.20;75.00
81307;DHT22;70775;50.846;3.224;2023-07-29T12:45:49;23.20;77.30
81307;DHT22;70775;50.846;3.224;2023-07-29T12:48:15;23.30;75.20
81307;DHT22;70775;50.846;3.224;2023-07-29T12:50:40;23.30;76.90
81307;DHT22;70775;50.846;3.224;2023-07-29T12:53:08;23.20;75.70
81307;DHT22;70775;50.846;3.224;2023-07-29T12:55:35;22.90;74.80
81307;DHT22;70775;50.846;3.224;2023-07-29T12:58:01;22.70;75.10
81307;DHT22;70775;50.846;3.224;2023-07-29T13:00:27;22.70;78.00
81307;DHT22;70775;50.846;3.224;2023-07-29T13:02:54;22.60;78.70
81307;DHT22;70775;50.846;3.224;2023-07-29T13:05:20;22.30;76.70
81307;DHT22;70775;50.846;3.224;2023-07-29T13:07:45;21.80;78.70
81307;DHT22;70775;50.846;3.224;2023-07-29T13:10:12;21.70;80.70
81307;DHT22;70775;50.846;3.224;2023-07-29T13:12:40;21.20;84.00
81307;DHT22;70775;50.846;3.224;2023-07-29T13:15:07;20.50;90.30
81307;DHT22;70775;50.846;3.224;2023-07-29T13:17:33;20.20;90.80
81307;DHT22;70775;50.846;3.224;2023-07-29T13:19:59;20.00;90.90
81307;DHT22;70775;50.846;3.224;2023-07-29T13:22:25;20.10;91.30
81307;DHT22;70775;50.846;3.224;2023-07-29T13:24:50;20.50;93.50
81307;DHT22;70775;50.846;3.224;2023-07-29T13:27:16;20.80;91.50
81307;DHT22;70775;50.846;3.224;2023-07-29T13:30:08;21.00;90.60
81307;DHT22;70775;50.846;3.224;2023-07-29T13:32:34;21.40;92.00
81307;DHT22;70775;50.846;3.224;2023-07-29T13:35:00;21.60;89.90
81307;DHT22;70775;50.846;3.224;2023-07-29T13:37:28;21.60;90.90
81307;DHT22;70775;50.846;3.224;2023-07-29T13:39:54;21.80;90.20
81307;DHT22;70775;50.846;3.224;2023-07-29T13:42:20;21.80;88.30
81307;DHT22;70775;50.846;3.224;2023-07-29T13:44:45;21.90;87.20
81307;DHT22;70775;50.846;3.224;2023-07-29T13:47:11;21.60;85.50
81307;DHT22;70775;50.846;3.224;2023-07-29T13:49:36;21.50;89.10
81307;DHT22;70775;50.846;3.224;2023-07-29T13:52:02;21.80;85.30
81307;DHT22;70775;50.846;3.224;2023-07-29T13:54:28;22.00;86.00
81307;DHT22;70775;50.846;3.224;2023-07-29T13:56:54;21.90;84.80
81307;DHT22;70775;50.846;3.224;2023-07-29T13:59:19;21.80;83.20
81307;DHT22;70775;50.846;3.224;2023-07-29T14:01:45;21.70;83.70
81307;DHT22;70775;50.846;3.224;2023-07-29T14:04:11;21.50;85.10
81307;DHT22;70775;50.846;3.224;2023-07-29T14:06:36;21.50;84.00
81307;DHT22;70775;50.846;3.224;2023-07-29T14:09:02;21.50;83.70
81307;DHT22;70775;50.846;3.224;2023-07-29T14:11:28;21.80;83.70
81307;DHT22;70775;50.846;3.224;2023-07-29T14:13:53;22.20;82.30
81307;DHT22;70775;50.846;3.224;2023-07-29T14:16:19;22.10;82.50
81307;DHT22;70775;50.846;3.224;2023-07-29T14:18:48;22.00;82.10
81307;DHT22;70775;50.846;3.224;2023-07-29T14:21:13;22.30;80.30
81307;DHT22;70775;50.846;3.224;2023-07-29T14:23:39;22.00;81.10
81307;DHT22;70775;50.846;3.224;2023-07-29T14:26:04;22.10;81.60
81307;DHT22;70775;50.846;3.224;2023-07-29T14:28:30;22.20;79.80
81307;DHT22;70775;50.846;3.224;2023-07-29T14:30:56;22.60;76.00
81307;DHT22;70775;50.846;3.224;2023-07-29T14:33:21;22.70;74.70
81307;DHT22;70775;50.846;3.224;2023-07-29T14:36:15;22.70;76.40
81307;DHT22;70775;50.846;3.224;2023-07-29T14:38:41;22.90;72.70
81307;DHT22;70775;50.846;3.224;2023-07-29T14:41:07;23.10;72.20
81307;DHT22;70775;50.846;3.224;2023-07-29T14:43:34;23.40;68.70
81307;DHT22;70775;50.846;3.224;2023-07-29T14:46:17;23.50;66.20
81307;DHT22;70775;50.846;3.224;2023-07-29T14:48:44;23.70;66.70
81307;DHT22;70775;50.846;3.224;2023-07-29T14:51:10;23.80;65.20
81307;DHT22;70775;50.846;3.224;2023-07-29T14:53:36;23.70;65.40
81307;DHT22;70775;50.846;3.224;2023-07-29T14:56:01;23.60;64.30
81307;DHT22;70775;50.846;3.224;2023-07-29T14:58:33;23.50;65.70
81307;DHT22;70775;50.846;3.224;2023-07-29T15:00:59;23.60;63.30
81307;DHT22;70775;50.846;3.224;2023-07-29T15:03:36;23.40;61.60
81307;DHT22;70775;50.846;3.224;2023-07-29T15:06:02;23.60;62.10
81307;DHT22;70775;50.846;3.224;2023-07-29T15:08:28;23.50;62.20
81307;DHT22;70775;50.846;3.224;2023-07-29T15:10:54;23.60;62.20
81307;DHT22;70775;50.846;3.224;2023-07-29T15:13:20;23.70;62.00
81307;DHT22;70775;50.846;3.224;2023-07-29T15:15:52;23.90;60.40
81307;DHT22;70775;50.846;3.224;2023-07-29T15:18:17;23.90;60.00
81307;DHT22;70775;50.846;3.224;2023-07-29T15:20:59;23.70;60.10
81307;DHT22;70775;50.846;3.224;2023-07-29T15:23:32;23.80;58.10
81307;DHT22;70775;50.846;3.224;2023-07-29T15:25:58;23.90;57.60
81307;DHT22;70775;50.846;3.224;2023-07-29T15:28:28;23.80;59.90
81307;DHT22;70775;50.846;3.224;2023-07-29T15:30:58;24.00;59.70
81307;DHT22;70775;50.846;3.224;2023-07-29T15:33:23;23.90;59.10
81307;DHT22;70775;50.846;3.224;2023-07-29T15:35:49;24.00;59.60
81307;DHT22;70775;50.846;3.224;2023-07-29T15:38:32;24.10;58.90
81307;DHT22;70775;50.846;3.224;2023-07-29T15:40:59;23.90;59.90
81307;DHT22;70775;50.846;3.224;2023-07-29T15:43:24;24.00;59.30
81307;DHT22;70775;50.846;3.224;2023-07-29T15:45:50;24.20;60.00
81307;DHT22;70775;50.846;3.224;2023-07-29T15:48:17;24.10;59.40
81307;DHT22;70775;50.846;3.224;2023-07-29T15:53:53;24.00;59.50
81307;DHT22;70775;50.846;3.224;2023-07-29T15:56:19;24.00;59.90
81307;DHT22;70775;50.846;3.224;2023-07-29T15:58:45;24.10;61.00
81307;DHT22;70775;50.846;3.224;2023-07-29T16:01:10;24.20;57.30
81307;DHT22;70775;50.846;3.224;2023-07-29T16:03:36;24.20;57.30
81307;DHT22;70775;50.846;3.224;2023-07-29T16:06:02;23.90;58.50
81307;DHT22;70775;50.846;3.224;2023-07-29T16:08:47;23.40;60.30
81307;DHT22;70775;50.846;3.224;2023-07-29T16:11:12;23.10;61.60
81307;DHT22;70775;50.846;3.224;2023-07-29T16:13:38;23.40;61.20
81307;DHT22;70775;50.846;3.224;2023-07-29T16:16:04;23.90;60.40
81307;DHT22;70775;50.846;3.224;2023-07-29T16:18:41;24.20;60.40
81307;DHT22;70775;50.846;3.224;2023-07-29T16:21:23;23.80;59.10
81307;DHT22;70775;50.846;3.224;2023-07-29T16:23:48;23.40;60.00
81307;DHT22;70775;50.846;3.224;2023-07-29T16:26:21;23.30;61.20
81307;DHT22;70775;50.846;3.224;2023-07-29T16:28:46;23.30;59.60
81307;DHT22;70775;50.846;3.224;2023-07-29T16:31:14;23.40;60.90
81307;DHT22;70775;50.846;3.224;2023-07-29T16:33:41;23.80;59.30
81307;DHT22;70775;50.846;3.224;2023-07-29T16:36:14;23.90;59.00
81307;DHT22;70775;50.846;3.224;2023-07-29T16:39:08;23.90;58.90
81307;DHT22;70775;50.846;3.224;2023-07-29T16:41:33;24.10;58.00